Map

Track Data

SID SEASON NUMBER BASIN SUBBASIN NAME ISO_TIME NATURE LAT LON WMO_WIND WMO_PRES WMO_AGENCY TRACK_TYPE DIST2LAND LANDFALL IFLAG USA_AGENCY USA_ATCF_ID USA_LAT USA_LON USA_RECORD USA_STATUS USA_WIND USA_PRES USA_SSHS USA_R34_NE USA_R34_SE USA_R34_SW USA_R34_NW USA_R50_NE USA_R50_SE USA_R50_SW USA_R50_NW USA_R64_NE USA_R64_SE USA_R64_SW USA_R64_NW USA_POCI USA_ROCI USA_RMW USA_EYE TOKYO_LAT TOKYO_LON TOKYO_GRADE TOKYO_WIND TOKYO_PRES TOKYO_R50_DIR TOKYO_R50_LONG TOKYO_R50_SHORT TOKYO_R30_DIR TOKYO_R30_LONG TOKYO_R30_SHORT TOKYO_LAND CMA_LAT CMA_LON CMA_CAT CMA_WIND CMA_PRES HKO_LAT HKO_LON HKO_CAT HKO_WIND HKO_PRES NEWDELHI_LAT NEWDELHI_LON NEWDELHI_GRADE NEWDELHI_WIND NEWDELHI_PRES NEWDELHI_CI NEWDELHI_DP NEWDELHI_POCI REUNION_LAT REUNION_LON REUNION_TYPE REUNION_WIND REUNION_PRES REUNION_TNUM REUNION_CI REUNION_RMW REUNION_R34_NE REUNION_R34_SE REUNION_R34_SW REUNION_R34_NW REUNION_R50_NE REUNION_R50_SE REUNION_R50_SW REUNION_R50_NW REUNION_R64_NE REUNION_R64_SE REUNION_R64_SW REUNION_R64_NW BOM_LAT BOM_LON BOM_TYPE BOM_WIND BOM_PRES BOM_TNUM BOM_CI BOM_RMW BOM_R34_NE BOM_R34_SE BOM_R34_SW BOM_R34_NW BOM_R50_NE BOM_R50_SE BOM_R50_SW BOM_R50_NW BOM_R64_NE BOM_R64_SE BOM_R64_SW BOM_R64_NW BOM_ROCI BOM_POCI BOM_EYE BOM_POS_METHOD BOM_PRES_METHOD NADI_LAT NADI_LON NADI_CAT NADI_WIND NADI_PRES WELLINGTON_LAT WELLINGTON_LON WELLINGTON_WIND WELLINGTON_PRES DS824_LAT DS824_LON DS824_STAGE DS824_WIND DS824_PRES TD9636_LAT TD9636_LON TD9636_STAGE TD9636_WIND TD9636_PRES TD9635_LAT TD9635_LON TD9635_WIND TD9635_PRES TD9635_ROCI NEUMANN_LAT NEUMANN_LON NEUMANN_CLASS NEUMANN_WIND NEUMANN_PRES MLC_LAT MLC_LON MLC_CLASS MLC_WIND MLC_PRES USA_GUST BOM_GUST BOM_GUST_PER REUNION_GUST REUNION_GUST_PER USA_SEAHGT USA_SEARAD_NE USA_SEARAD_SE USA_SEARAD_SW USA_SEARAD_NW STORM_SPEED STORM_DIR
1925232N21089 1925 38 NI BB NOT_NAMED 1925-08-20 00:00:00 TS 20.9000 88.7000 main 80 78 _________O____ -1 20.9000 88.7000 TC 30 3 267
1925232N21089 1925 38 NI BB NOT_NAMED 1925-08-20 03:00:00 TS 20.8934 88.5600 main 78 78 _________PO___ -1 20.8901 88.4900 TC 30 20.9000 88.7000 1 3 271
1925232N21089 1925 38 NI BB NOT_NAMED 1925-08-20 06:00:00 TS 20.9063 88.3881 main 78 78 _________OP___ -1 20.9000 88.3000 TC 30 20.9158 88.5203 1 3 278
1925232N21089 1925 38 NI BB NOT_NAMED 1925-08-20 09:00:00 TS 20.9393 88.2282 main 78 67 _________PP___ -1 20.9425 88.1425 TC 30 20.9351 88.3425 1 3 285
1925232N21089 1925 38 NI BB NOT_NAMED 1925-08-20 12:00:00 TS 20.9810 88.0842 main 67 67 _________OP___ -1 21.0000 88.0000 TC 30 20.9619 88.1684 1 3 287
1925232N21089 1925 38 NI BB NOT_NAMED 1925-08-20 15:00:00 TS 21.0250 87.9212 main 73 67 _________PO___ -1 21.0500 87.8425 TC 30 21.0000 88.0000 1 3 288
1925232N21089 1925 38 NI BB NOT_NAMED 1925-08-20 18:00:00 TS 21.0755 87.7702 main 67 59 _________OP___ -1 21.1000 87.7000 TC 30 21.0509 87.8404 1 3 292
1925232N21089 1925 38 NI BB NOT_NAMED 1925-08-20 21:00:00 TS 21.1325 87.6375 main 59 45 _________PP___ -1 21.1575 87.5775 TC 30 21.1075 87.6976 1 2 296
1925232N21089 1925 38 NI BB NOT_NAMED 1925-08-21 00:00:00 TS 21.1802 87.5405 main 45 45 _________OP___ -1 21.2000 87.5000 TC 30 21.1603 87.5810 1 2 298
1925232N21089 1925 38 NI BB NOT_NAMED 1925-08-21 03:00:00 TS 21.2037 87.4925 main 45 45 _________PO___ -1 21.2075 87.4850 TC 30 21.2000 87.5000 1 1 299
1925232N21089 1925 38 NI BB NOT_NAMED 1925-08-21 06:00:00 TS 21.2072 87.4820 main 45 45 _________OP___ -1 21.2000 87.5000 TC 30 21.2143 87.4640 1 0 0
1925232N21089 1925 38 NI BB NOT_NAMED 1925-08-21 09:00:00 TS 21.2075 87.4812 main 45 45 _________PP___ -1 21.2000 87.5000 TC 30 21.2149 87.4624 1 0 0
1925232N21089 1925 38 NI BB NOT_NAMED 1925-08-21 12:00:00 TS 21.2040 87.4898 main 45 45 _________OP___ -1 21.2000 87.5000 TC 30 21.2081 87.4797 1 0 0
1925232N21089 1925 38 NI BB NOT_NAMED 1925-08-21 15:00:00 TS 21.2000 87.5000 main 45 45 _________PO___ -1 21.2000 87.5000 TC 30 21.2000 87.5000 1 1 104
1925232N21089 1925 38 NI BB NOT_NAMED 1925-08-21 18:00:00 TS 21.1850 87.5707 main 49 49 _________OP___ -1 21.2000 87.5000 TC 30 21.1700 87.6414 1 2 103
1925232N21089 1925 38 NI BB NOT_NAMED 1925-08-21 21:00:00 TS 21.1609 87.6791 main 54 49 _________PP___ -1 21.1771 87.5973 TC 30 21.1446 87.7609 1 1 102
1925232N21089 1925 38 NI BB NOT_NAMED 1925-08-22 00:00:00 TS 21.1735 87.6250 main 49 30 _________OP___ -1 21.2000 87.5000 TC 30 21.1469 87.7501 1 4 284
1925232N21089 1925 38 NI BB NOT_NAMED 1925-08-22 03:00:00 TS 21.2597 87.2574 main 30 0 _________PO___ -1 21.3195 87.0148 TC 30 21.2000 87.5000 1 10 283
1925232N21089 1925 38 NI BB NOT_NAMED 1925-08-22 06:00:00 TS 21.4055 86.5363 main 0 0 _________OP___ -1 21.5000 86.2000 TC 30 21.3110 86.8727 1 16 281
1925232N21089 1925 38 NI BB NOT_NAMED 1925-08-22 09:00:00 TS 21.5787 85.5675 main 0 0 _________PP___ -1 21.6861 85.1301 TC 30 21.4713 86.0050 1 19 281
1925232N21089 1925 38 NI BB NOT_NAMED 1925-08-22 12:00:00 TS 21.7852 84.5048 main 0 0 _________OP___ -1 21.9000 84.0000 TC 30 21.6704 85.0097 1 19 283
1925232N21089 1925 38 NI BB NOT_NAMED 1925-08-22 15:00:00 TS 22.0170 83.5560 main 0 0 _________PO___ -1 22.1339 83.1121 TC 30 21.9000 84.0000 1 17 286
1925232N21089 1925 38 NI BB NOT_NAMED 1925-08-22 18:00:00 TS 22.2596 82.7378 main 0 0 _________OP___ -1 22.4000 82.3000 TC 30 22.1542 83.0661 1 16 289
1925232N21089 1925 38 NI BB NOT_NAMED 1925-08-22 21:00:00 TS 22.5337 81.9085 main 0 0 _________PP___ -1 22.6937 81.4634 TC 30 22.4270 82.2052 1 16 290
1925232N21089 1925 38 NI BB NOT_NAMED 1925-08-23 00:00:00 TS 22.8076 81.1277 main 0 0 _________OP___ -1 23.0000 80.6000 TC 30 22.7114 81.3916 1 13 291
1925232N21089 1925 38 NI BB NOT_NAMED 1925-08-23 03:00:00 NR 23.0000 80.6000 main 0 __________O___ -1 TC 23.0000 80.6000 1 10 292

About IBTrACS Database

This database is a web-friendly format of International Best Track Archive for Climate Stewardship (IBTrACS), a global best track data archive curated by NOAA dating back to 1842.

Updated: 2021-10-08